Time;durP1;ratioP1;P1;durP2;ratioP2;P2;SDS_P1;SDS_P2;PMS_P1;PMS_P2;Temp;Humidity;BMP_temperature;BMP_pressure;BME280_temperature;BME280_humidity;BME280_pressure;Samples;Min_cycle;Max_cycle;Signal;HPM_P1;HPM_P2
2023/06/14 00:01:24;;;;;;;1999.90;999.90;;;24.90;75.10;;;;;;5052074;28;20032;-70
2023/06/14 00:03:52;;;;;;;1999.90;999.90;;;24.40;75.80;;;;;;5047829;28;20035;-71
2023/06/14 00:06:19;;;;;;;1999.90;999.90;;;24.30;76.30;;;;;;5048274;28;20029;-71
2023/06/14 00:08:46;;;;;;;1999.90;999.90;;;24.70;75.60;;;;;;5046053;28;20045;-70
2023/06/14 00:11:14;;;;;;;1999.90;999.90;;;25.00;76.90;;;;;;5047386;28;20098;-70
2023/06/14 00:13:43;;;;;;;1999.90;999.90;;;25.40;74.90;;;;;;5050165;28;20364;-70
2023/06/14 00:16:10;;;;;;;1999.90;999.90;;;25.60;74.60;;;;;;5054678;28;20035;-70
2023/06/14 00:18:38;;;;;;;1999.90;999.90;;;26.00;72.50;;;;;;5053090;28;20492;-70
2023/06/14 00:21:08;;;;;;;1999.90;999.90;;;25.90;71.20;;;;;;5055791;28;20082;-69
2023/06/14 00:23:35;;;;;;;1999.90;999.90;;;25.60;73.40;;;;;;5053608;28;20111;-70
2023/06/14 00:26:03;;;;;;;1999.90;999.90;;;25.70;74.50;;;;;;5047476;28;20036;-70
2023/06/14 00:28:30;;;;;;;1999.90;999.90;;;25.90;75.00;;;;;;5058332;28;20119;-70
2023/06/14 00:30:57;;;;;;;1999.90;999.90;;;26.30;73.30;;;;;;5051260;28;20119;-69
2023/06/14 00:33:25;;;;;;;1999.90;999.90;;;26.50;73.30;;;;;;5049073;28;20135;-70
2023/06/14 00:35:55;;;;;;;1999.90;999.90;;;26.70;73.60;;;;;;5057224;28;20171;-69
2023/06/14 00:38:23;;;;;;;1999.90;999.90;;;26.90;73.20;;;;;;5051295;28;20037;-70
2023/06/14 00:40:50;;;;;;;1999.90;999.90;;;27.20;72.70;;;;;;5048178;28;20014;-69
2023/06/14 00:43:21;;;;;;;1999.90;999.90;;;27.80;70.30;;;;;;5041342;28;20354;-70
2023/06/14 00:45:49;;;;;;;1999.90;999.90;;;27.90;70.30;;;;;;5039916;28;20065;-70
2023/06/14 00:48:17;;;;;;;1999.90;999.90;;;28.10;70.30;;;;;;5045362;28;20044;-70
2023/06/14 00:50:46;;;;;;;1999.90;999.90;;;28.00;70.70;;;;;;5049840;28;20036;-70
2023/06/14 00:53:15;;;;;;;1999.90;999.90;;;28.20;69.60;;;;;;5054766;28;20049;-71
2023/06/14 00:55:42;;;;;;;1999.90;999.90;;;28.20;69.10;;;;;;5057465;28;20037;-70
2023/06/14 00:58:11;;;;;;;1999.90;999.90;;;28.20;69.90;;;;;;5053893;28;20060;-70
2023/06/14 01:00:38;;;;;;;1999.90;999.90;;;28.60;69.00;;;;;;5055134;28;20036;-70
2023/06/14 01:03:06;;;;;;;1999.90;999.90;;;28.80;68.20;;;;;;5056369;28;20084;-70
2023/06/14 01:05:34;;;;;;;1999.90;999.90;;;29.00;66.20;;;;;;5051853;28;20024;-71
2023/06/14 01:08:26;;;;;;;1999.90;999.90;;;28.70;67.00;;;;;;5051493;28;20120;-70
2023/06/14 01:11:04;;;;;;;1999.90;999.90;;;28.60;67.70;;;;;;5050199;28;20013;-70
2023/06/14 01:13:38;;;;;;;1999.90;999.90;;;28.70;67.40;;;;;;5057880;28;21679;-71
2023/06/14 01:16:08;;;;;;;1999.90;999.90;;;28.50;67.40;;;;;;5048789;28;20399;-70
2023/06/14 01:18:36;;;;;;;1999.90;999.90;;;28.50;68.60;;;;;;5050738;28;20036;-71
2023/06/14 01:21:08;;;;;;;1999.90;999.90;;;29.00;68.10;;;;;;5056702;28;20033;-71
2023/06/14 01:23:35;;;;;;;1999.90;999.90;;;29.30;66.80;;;;;;5053170;28;20040;-71
2023/06/14 01:26:03;;;;;;;1999.90;999.90;;;29.30;68.30;;;;;;5055528;28;20025;-71
2023/06/14 01:28:33;;;;;;;1999.90;999.90;;;29.60;65.80;;;;;;5054283;28;20815;-70
2023/06/14 01:31:04;;;;;;;1999.90;999.90;;;29.70;65.60;;;;;;5049060;28;20036;-70
2023/06/14 01:33:33;;;;;;;1999.90;999.90;;;29.80;66.50;;;;;;5057380;28;20120;-70
2023/06/14 01:36:02;;;;;;;1999.90;999.90;;;30.00;66.30;;;;;;5049599;28;20017;-71
2023/06/14 01:38:30;;;;;;;1999.90;999.90;;;30.00;66.20;;;;;;5057051;28;20074;-69
2023/06/14 01:41:01;;;;;;;1999.90;999.90;;;29.90;65.00;;;;;;5047872;28;20021;-68
2023/06/14 01:43:31;;;;;;;1999.90;999.90;;;29.40;62.50;;;;;;5057045;28;20115;-71
2023/06/14 01:45:59;;;;;;;1999.90;999.90;;;28.00;63.20;;;;;;5055316;28;20041;-70
2023/06/14 01:48:27;;;;;;;1999.90;999.90;;;27.10;63.30;;;;;;5051872;28;20041;-70
2023/06/14 01:50:54;;;;;;;1999.90;999.90;;;26.30;64.80;;;;;;5056187;28;20051;-69
2023/06/14 01:53:22;;;;;;;1999.90;999.90;;;25.50;65.50;;;;;;5056861;28;20966;-70
2023/06/14 01:55:50;;;;;;;1999.90;999.90;;;25.60;68.40;;;;;;5050542;28;20737;-70
2023/06/14 01:58:17;;;;;;;1999.90;999.90;;;26.30;68.60;;;;;;5054082;28;20479;-70
2023/06/14 02:00:45;;;;;;;1999.90;999.90;;;27.10;68.10;;;;;;5056947;28;20095;-69
2023/06/14 02:03:13;;;;;;;1999.90;999.90;;;27.60;67.00;;;;;;5050360;28;20091;-71
2023/06/14 02:05:40;;;;;;;1999.90;999.90;;;28.20;67.40;;;;;;5046241;28;20033;-69
2023/06/14 02:08:08;;;;;;;1999.90;999.90;;;28.60;66.00;;;;;;5049518;28;20329;-69
2023/06/14 02:10:35;;;;;;;1999.90;999.90;;;28.90;66.70;;;;;;5047241;28;20063;-69
2023/06/14 02:13:03;;;;;;;1999.90;999.90;;;29.00;63.90;;;;;;5056262;28;20048;-69
2023/06/14 02:15:33;;;;;;;1999.90;999.90;;;28.70;62.90;;;;;;5059090;28;20057;-71
2023/06/14 02:18:04;;;;;;;1999.90;999.90;;;28.50;63.50;;;;;;5052782;28;20668;-69
2023/06/14 02:20:32;;;;;;;1999.90;999.90;;;28.50;63.90;;;;;;5047391;28;20662;-69
2023/06/14 02:23:00;;;;;;;1999.90;999.90;;;28.60;64.90;;;;;;5055471;28;20123;-68
2023/06/14 02:25:29;;;;;;;1999.90;999.90;;;28.70;65.30;;;;;;5044859;28;20119;-69
2023/06/14 02:27:57;;;;;;;1999.90;999.90;;;28.80;65.40;;;;;;5065054;28;20033;-69
2023/06/14 02:30:24;;;;;;;1999.90;999.90;;;28.80;64.60;;;;;;5051215;28;20032;-67
2023/06/14 02:32:52;;;;;;;1999.90;999.90;;;28.70;65.70;;;;;;5046743;28;20510;-70
2023/06/14 02:35:22;;;;;;;1999.90;999.90;;;28.60;65.80;;;;;;5050373;28;20369;-69
2023/06/14 02:37:51;;;;;;;1999.90;999.90;;;28.60;64.80;;;;;;5047984;28;20021;-68
2023/06/14 02:40:18;;;;;;;1999.90;999.90;;;28.50;64.40;;;;;;5053658;28;20028;-71
2023/06/14 02:42:46;;;;;;;1999.90;999.90;;;28.30;63.20;;;;;;5044765;28;20028;-70
2023/06/14 02:45:13;;;;;;;1999.90;999.90;;;28.20;64.00;;;;;;5047913;28;20074;-69
2023/06/14 02:47:40;;;;;;;1999.90;999.90;;;27.80;63.50;;;;;;5053879;28;20021;-71
2023/06/14 02:50:09;;;;;;;1999.90;999.90;;;27.20;61.90;;;;;;5049431;28;20037;-71
2023/06/14 02:52:36;;;;;;;1999.90;999.90;;;26.60;62.60;;;;;;5051436;28;20376;-70
2023/06/14 02:55:04;;;;;;;1999.90;999.90;;;26.20;63.80;;;;;;5053663;28;20587;-71
2023/06/14 02:57:31;;;;;;;1999.90;999.90;;;26.20;64.10;;;;;;5045552;28;20029;-69
2023/06/14 02:59:59;;;;;;;1999.90;999.90;;;25.90;64.60;;;;;;5047239;28;20025;-71
2023/06/14 03:02:26;;;;;;;1999.90;999.90;;;25.60;63.70;;;;;;5051993;28;20447;-71
2023/06/14 03:04:54;;;;;;;1999.90;999.90;;;24.50;62.90;;;;;;5054825;28;20025;-71
2023/06/14 03:07:23;;;;;;;1999.90;999.90;;;24.10;64.60;;;;;;5055137;28;20033;-70
2023/06/14 03:09:50;;;;;;;1999.90;999.90;;;24.10;66.60;;;;;;5058953;28;20029;-71
2023/06/14 03:12:17;;;;;;;1999.90;999.90;;;24.00;66.00;;;;;;5059191;28;20028;-70
2023/06/14 03:14:46;;;;;;;1999.90;999.90;;;23.80;67.00;;;;;;5060227;28;20030;-71
2023/06/14 03:17:14;;;;;;;1999.90;999.90;;;23.80;66.20;;;;;;5054354;28;20040;-70
2023/06/14 03:19:41;;;;;;;1999.90;999.90;;;23.60;66.50;;;;;;5054684;28;20035;-71
2023/06/14 03:22:08;;;;;;;1999.90;999.90;;;23.50;67.00;;;;;;5059723;28;20036;-71
2023/06/14 03:24:36;;;;;;;1999.90;999.90;;;23.30;66.30;;;;;;5063652;28;20459;-70
2023/06/14 03:27:04;;;;;;;1999.90;999.90;;;22.90;64.90;;;;;;5053769;28;20040;-72
2023/06/14 03:29:31;;;;;;;1999.90;999.90;;;22.20;65.50;;;;;;5059208;28;20032;-71
2023/06/14 03:32:03;;;;;;;1999.90;999.90;;;21.70;66.10;;;;;;5058781;28;20051;-70
2023/06/14 03:34:31;;;;;;;1999.90;999.90;;;21.20;65.20;;;;;;5060202;28;20039;-71
2023/06/14 03:36:58;;;;;;;1999.90;999.90;;;20.60;65.50;;;;;;5058826;28;20032;-72
2023/06/14 03:39:25;;;;;;;1999.90;999.90;;;20.40;67.10;;;;;;5058172;28;20033;-72
2023/06/14 03:41:53;;;;;;;1999.90;999.90;;;20.10;66.20;;;;;;5055705;28;20727;-71
2023/06/14 03:44:21;;;;;;;1999.90;999.90;;;19.70;66.40;;;;;;5054334;28;20037;-72
2023/06/14 03:46:48;;;;;;;1999.90;999.90;;;19.50;67.40;;;;;;5058408;28;20024;-72
2023/06/14 03:49:17;;;;;;;1999.90;999.90;;;19.40;67.30;;;;;;5060942;28;20102;-71
2023/06/14 03:51:44;;;;;;;1999.90;999.90;;;19.20;67.40;;;;;;5060632;28;20029;-71
2023/06/14 03:54:12;;;;;;;1999.90;999.90;;;19.10;68.00;;;;;;5062938;28;20111;-71
2023/06/14 03:56:39;;;;;;;1999.90;999.90;;;19.10;68.20;;;;;;5055989;28;20017;-73
2023/06/14 03:59:06;;;;;;;1999.90;999.90;;;19.00;67.80;;;;;;5058413;28;20432;-72
2023/06/14 04:01:33;;;;;;;1999.90;999.90;;;18.90;68.30;;;;;;5048011;28;20074;-72
2023/06/14 04:04:01;;;;;;;1999.90;999.90;;;18.80;68.10;;;;;;5049108;28;20113;-71
2023/06/14 04:06:32;;;;;;;1999.90;999.90;;;18.70;68.30;;;;;;5048758;28;20025;-72
2023/06/14 04:09:04;;;;;;;1999.90;999.90;;;18.60;68.50;;;;;;5055458;28;20043;-72
2023/06/14 04:11:31;;;;;;;1999.90;999.90;;;18.60;68.50;;;;;;5053079;28;20025;-71
2023/06/14 04:13:59;;;;;;;1999.90;999.90;;;18.60;68.50;;;;;;5061116;28;20020;-72
2023/06/14 04:16:27;;;;;;;1999.90;999.90;;;18.60;68.80;;;;;;5055786;28;20033;-72
2023/06/14 04:18:57;;;;;;;1999.90;999.90;;;18.50;68.60;;;;;;5052206;28;20025;-72
2023/06/14 04:21:27;;;;;;;1999.90;999.90;;;18.40;69.70;;;;;;5050722;28;20032;-71
2023/06/14 04:23:55;;;;;;;1999.90;999.90;;;18.40;69.30;;;;;;5055901;28;20056;-71
2023/06/14 04:26:29;;;;;;;1999.90;999.90;;;18.40;68.20;;;;;;5052969;28;20525;-72
2023/06/14 04:29:01;;;;;;;1999.90;999.90;;;18.30;68.10;;;;;;5064162;28;20028;-72
2023/06/14 04:31:33;;;;;;;1999.90;999.90;;;18.20;68.30;;;;;;5048969;28;20029;-72
2023/06/14 04:34:01;;;;;;;1999.90;999.90;;;18.20;68.60;;;;;;5054500;28;20021;-72
2023/06/14 04:36:28;;;;;;;1999.90;999.90;;;18.10;68.50;;;;;;5053404;28;20040;-70
2023/06/14 04:38:55;;;;;;;1999.90;999.90;;;18.10;68.10;;;;;;5053739;28;20096;-71
2023/06/14 04:41:28;;;;;;;1999.90;999.90;;;18.10;68.60;;;;;;5051739;28;20036;-71
2023/06/14 04:43:57;;;;;;;1999.90;999.90;;;18.10;69.00;;;;;;5053026;28;20603;-71
2023/06/14 04:46:27;;;;;;;1999.90;999.90;;;18.00;68.90;;;;;;5048316;28;20032;-71
2023/06/14 04:48:54;;;;;;;1999.90;999.90;;;18.00;68.70;;;;;;5053833;28;20056;-71
2023/06/14 04:51:28;;;;;;;1999.90;999.90;;;18.00;68.70;;;;;;5072661;28;20025;-73
2023/06/14 04:53:58;;;;;;;1999.90;999.90;;;18.00;69.10;;;;;;5055209;28;20375;-70
2023/06/14 04:56:26;;;;;;;1999.90;999.90;;;18.00;69.00;;;;;;5061067;28;20093;-71
2023/06/14 04:58:53;;;;;;;1999.90;999.90;;;18.00;68.00;;;;;;5055670;28;20036;-70
2023/06/14 05:01:22;;;;;;;1999.90;999.90;;;17.90;67.90;;;;;;5060769;28;20020;-70
2023/06/14 05:03:51;;;;;;;1999.90;999.90;;;17.80;67.90;;;;;;5053993;28;20049;-70
2023/06/14 05:06:18;;;;;;;1999.90;999.90;;;17.80;68.40;;;;;;5053044;28;20096;-71
2023/06/14 05:08:45;;;;;;;1999.90;999.90;;;17.70;69.30;;;;;;5057205;28;20451;-70
2023/06/14 05:11:13;;;;;;;1999.90;999.90;;;17.70;69.20;;;;;;5041736;28;20021;-70
2023/06/14 05:13:41;;;;;;;1999.90;999.90;;;17.60;69.20;;;;;;5047965;28;20423;-70
2023/06/14 05:16:09;;;;;;;1999.90;999.90;;;17.60;69.30;;;;;;5056386;28;20049;-71
2023/06/14 05:18:37;;;;;;;1999.90;999.90;;;17.50;69.80;;;;;;5051799;28;20064;-72
2023/06/14 05:21:05;;;;;;;1999.90;999.90;;;17.50;69.40;;;;;;5046950;28;20432;-72
2023/06/14 05:23:33;;;;;;;1999.90;999.90;;;17.50;68.60;;;;;;5056262;28;20075;-71
2023/06/14 05:26:02;;;;;;;1999.90;999.90;;;17.50;69.40;;;;;;5053104;28;20365;-72
2023/06/14 05:28:30;;;;;;;1999.90;999.90;;;17.50;69.30;;;;;;5055653;28;20068;-74
2023/06/14 05:30:58;;;;;;;1999.90;999.90;;;17.40;69.60;;;;;;5053217;28;20021;-72
2023/06/14 05:33:25;;;;;;;1999.90;999.90;;;17.30;70.00;;;;;;5056873;28;20071;-71
2023/06/14 05:35:52;;;;;;;1999.90;999.90;;;17.30;70.00;;;;;;5058616;28;20433;-74
2023/06/14 05:38:20;;;;;;;1999.90;999.90;;;17.20;70.40;;;;;;5061402;28;20017;-71
2023/06/14 05:40:47;;;;;;;1999.90;999.90;;;17.10;70.30;;;;;;5050273;28;20023;-71
2023/06/14 05:43:15;;;;;;;1999.90;999.90;;;17.10;70.40;;;;;;5045908;28;20470;-72
2023/06/14 05:45:42;;;;;;;1999.90;999.90;;;17.10;70.70;;;;;;5056578;28;20016;-71
2023/06/14 05:48:09;;;;;;;1999.90;999.90;;;17.00;70.80;;;;;;5053312;28;20090;-71
2023/06/14 05:50:37;;;;;;;1999.90;999.90;;;17.00;70.50;;;;;;5058557;28;21734;-69
2023/06/14 05:53:04;;;;;;;1999.90;999.90;;;17.00;70.40;;;;;;5047847;28;20039;-72
2023/06/14 05:55:31;;;;;;;1999.90;999.90;;;17.00;70.70;;;;;;5048199;28;20028;-71
2023/06/14 05:58:01;;;;;;;1999.90;999.90;;;17.00;70.90;;;;;;5059394;28;20029;-73
2023/06/14 06:00:28;;;;;;;1999.90;999.90;;;17.00;71.30;;;;;;5057290;28;20028;-73
2023/06/14 06:02:57;;;;;;;1999.90;999.90;;;17.00;71.50;;;;;;5048961;28;20101;-72
2023/06/14 06:05:25;;;;;;;1999.90;999.90;;;17.00;71.40;;;;;;5049026;28;20017;-71
2023/06/14 06:07:52;;;;;;;1999.90;999.90;;;17.00;70.90;;;;;;5055897;28;20041;-72
2023/06/14 06:10:20;;;;;;;1999.90;999.90;;;17.10;71.10;;;;;;5049908;28;20032;-71
2023/06/14 06:12:48;;;;;;;1999.90;999.90;;;17.10;71.20;;;;;;5052953;28;20020;-73
2023/06/14 06:15:15;;;;;;;1999.90;999.90;;;17.20;71.10;;;;;;5050235;28;20498;-71
2023/06/14 06:17:43;;;;;;;1999.90;999.90;;;17.20;70.90;;;;;;5053165;28;20789;-71
2023/06/14 06:20:11;;;;;;;1999.90;999.90;;;17.10;71.30;;;;;;5058322;28;20035;-72
2023/06/14 06:22:39;;;;;;;1999.90;999.90;;;17.10;71.10;;;;;;5051792;28;20029;-72
2023/06/14 06:25:07;;;;;;;1999.90;999.90;;;17.00;70.90;;;;;;5047575;28;21336;-71
2023/06/14 06:27:37;;;;;;;1999.90;999.90;;;16.90;71.20;;;;;;5051757;28;20079;-71
2023/06/14 06:30:05;;;;;;;1999.90;999.90;;;16.80;71.40;;;;;;5057330;28;20035;-74
2023/06/14 06:32:32;;;;;;;1999.90;999.90;;;16.70;71.70;;;;;;5050310;28;20031;-71
2023/06/14 06:35:00;;;;;;;1999.90;999.90;;;16.50;72.30;;;;;;5049827;28;20020;-71
2023/06/14 06:37:27;;;;;;;1999.90;999.90;;;16.40;72.80;;;;;;5052696;28;20520;-73
2023/06/14 06:39:54;;;;;;;1999.90;999.90;;;16.20;73.30;;;;;;5059658;28;20037;-72
2023/06/14 06:42:22;;;;;;;1999.90;999.90;;;16.00;73.80;;;;;;5050875;28;20021;-72
2023/06/14 06:44:49;;;;;;;1999.90;999.90;;;15.90;74.20;;;;;;5059680;28;20032;-71
2023/06/14 06:47:16;;;;;;;1999.90;999.90;;;15.80;74.70;;;;;;5064334;28;20020;-71
2023/06/14 06:49:44;;;;;;;1999.90;999.90;;;15.60;74.90;;;;;;5060187;28;20028;-72
2023/06/14 06:52:11;;;;;;;1999.90;999.90;;;15.40;75.40;;;;;;5064722;28;20032;-73
2023/06/14 06:54:39;;;;;;;1999.90;999.90;;;15.30;76.20;;;;;;5063545;28;20021;-70
2023/06/14 06:57:07;;;;;;;1999.90;999.90;;;15.30;75.70;;;;;;5053362;28;20025;-73
2023/06/14 06:59:35;;;;;;;1999.90;999.90;;;15.20;76.30;;;;;;5060875;28;20037;-73
2023/06/14 07:02:02;;;;;;;1999.90;999.90;;;15.20;76.00;;;;;;5058900;28;20048;-72
2023/06/14 07:04:31;;;;;;;1999.90;999.90;;;15.10;76.40;;;;;;5054866;28;20021;-71
2023/06/14 07:06:58;;;;;;;1999.90;999.90;;;15.00;76.50;;;;;;5055613;28;20082;-73
2023/06/14 07:09:25;;;;;;;1999.90;999.90;;;14.90;77.00;;;;;;5066894;28;20055;-74
2023/06/14 07:11:53;;;;;;;1999.90;999.90;;;14.70;77.40;;;;;;5051315;28;20132;-73
2023/06/14 07:14:22;;;;;;;1999.90;999.90;;;14.60;77.60;;;;;;5056733;28;20429;-73
2023/06/14 07:16:50;;;;;;;1999.90;999.90;;;14.60;78.10;;;;;;5054403;28;20488;-73
2023/06/14 07:19:19;;;;;;;1999.90;999.90;;;14.50;78.00;;;;;;5056753;28;20037;-73
2023/06/14 07:21:47;;;;;;;1999.90;999.90;;;14.50;77.90;;;;;;5055514;28;20138;-71
2023/06/14 07:24:15;;;;;;;1999.90;999.90;;;14.50;78.00;;;;;;5055022;28;20025;-73
2023/06/14 07:26:42;;;;;;;1999.90;999.90;;;14.50;78.00;;;;;;5050925;28;20040;-72
2023/06/14 07:29:09;;;;;;;1999.90;999.90;;;14.50;77.90;;;;;;5056986;28;21147;-74
2023/06/14 07:31:37;;;;;;;1999.90;999.90;;;14.40;78.10;;;;;;5054844;28;20013;-73
2023/06/14 07:34:04;;;;;;;1999.90;999.90;;;14.40;78.60;;;;;;5057435;28;20037;-72
2023/06/14 07:36:31;;;;;;;1999.90;999.90;;;14.30;78.80;;;;;;5055482;28;20035;-73
2023/06/14 07:38:59;;;;;;;1999.90;999.90;;;14.30;79.20;;;;;;5052101;28;20511;-72
2023/06/14 07:41:26;;;;;;;1999.90;999.90;;;14.20;79.50;;;;;;5055759;28;20021;-73
2023/06/14 07:43:54;;;;;;;1999.90;999.90;;;14.10;79.80;;;;;;5052209;28;20033;-73
2023/06/14 07:46:21;;;;;;;1999.90;999.90;;;14.00;80.10;;;;;;5047816;28;20435;-73
2023/06/14 07:48:48;;;;;;;1999.90;999.90;;;13.80;80.50;;;;;;5058189;28;20037;-73
2023/06/14 07:51:16;;;;;;;1999.90;999.90;;;13.70;81.40;;;;;;5055669;28;20028;-72
2023/06/14 07:53:43;;;;;;;1999.90;999.90;;;13.60;81.40;;;;;;5059580;28;20589;-73
2023/06/14 07:56:10;;;;;;;1999.90;999.90;;;13.50;81.40;;;;;;5057350;28;20459;-72
2023/06/14 07:58:38;;;;;;;1999.90;999.90;;;13.50;81.40;;;;;;5062321;28;20139;-72
2023/06/14 08:01:07;;;;;;;1999.90;999.90;;;13.50;81.70;;;;;;5057132;28;20056;-72
2023/06/14 08:03:35;;;;;;;1999.90;999.90;;;13.50;81.70;;;;;;5060065;28;20052;-73
2023/06/14 08:06:04;;;;;;;1999.90;999.90;;;13.50;82.00;;;;;;5056868;28;20045;-72
2023/06/14 08:08:31;;;;;;;1999.90;999.90;;;13.50;82.20;;;;;;5057039;28;21473;-72
2023/06/14 08:11:00;;;;;;;1999.90;999.90;;;13.40;82.10;;;;;;5052132;28;20110;-71
2023/06/14 08:13:27;;;;;;;1999.90;999.90;;;13.40;82.50;;;;;;5056667;28;20025;-72
2023/06/14 08:15:57;;;;;;;1999.90;999.90;;;13.40;82.70;;;;;;5051272;28;20496;-72
2023/06/14 08:18:24;;;;;;;1999.90;999.90;;;13.40;82.40;;;;;;5059884;28;20052;-72
2023/06/14 08:20:52;;;;;;;1999.90;999.90;;;13.40;82.50;;;;;;5058296;28;20030;-72
2023/06/14 08:23:20;;;;;;;1999.90;999.90;;;13.40;82.60;;;;;;5059711;28;20438;-71
2023/06/14 08:25:48;;;;;;;1999.90;999.90;;;13.50;82.40;;;;;;5052927;28;20480;-72
2023/06/14 08:28:15;;;;;;;1999.90;999.90;;;13.40;82.60;;;;;;5060478;28;20503;-71
2023/06/14 08:30:43;;;;;;;1999.90;999.90;;;13.30;82.80;;;;;;5046674;28;20036;-72
2023/06/14 08:33:11;;;;;;;1999.90;999.90;;;13.10;83.30;;;;;;5048010;28;20094;-72
2023/06/14 08:35:39;;;;;;;1999.90;999.90;;;13.10;83.40;;;;;;5054677;28;20454;-70
2023/06/14 08:38:06;;;;;;;1999.90;999.90;;;13.00;83.70;;;;;;5048840;28;20052;-72
2023/06/14 08:40:38;;;;;;;1999.90;999.90;;;13.00;84.00;;;;;;5060359;28;20021;-71
2023/06/14 08:43:06;;;;;;;1999.90;999.90;;;12.90;84.00;;;;;;5058454;28;20569;-71
2023/06/14 08:45:33;;;;;;;1999.90;999.90;;;12.90;84.10;;;;;;5047221;28;20032;-72
2023/06/14 08:48:02;;;;;;;1999.90;999.90;;;12.80;84.30;;;;;;5052791;28;20083;-72
2023/06/14 08:50:31;;;;;;;1999.90;999.90;;;12.80;84.50;;;;;;5053669;28;20033;-72
2023/06/14 08:53:03;;;;;;;1999.90;999.90;;;12.70;84.60;;;;;;5056279;28;20037;-71
2023/06/14 08:55:32;;;;;;;1999.90;999.90;;;12.70;84.90;;;;;;5048594;28;20504;-72
2023/06/14 08:58:01;;;;;;;1999.90;999.90;;;12.70;84.70;;;;;;5057519;28;20028;-71
2023/06/14 09:00:30;;;;;;;1999.90;999.90;;;12.80;84.70;;;;;;5057805;28;20105;-72
2023/06/14 09:02:59;;;;;;;1999.90;999.90;;;12.70;84.70;;;;;;5058280;28;20519;-72
2023/06/14 09:05:27;;;;;;;1999.90;999.90;;;12.60;85.10;;;;;;5050910;28;20021;-72
2023/06/14 09:07:56;;;;;;;1999.90;999.90;;;12.60;85.20;;;;;;5055580;28;20153;-72
2023/06/14 09:10:25;;;;;;;1999.90;999.90;;;12.50;85.20;;;;;;5046833;28;20029;-71
2023/06/14 09:12:52;;;;;;;1999.90;999.90;;;12.50;85.50;;;;;;5050468;28;20035;-72
2023/06/14 09:15:20;;;;;;;1999.90;999.90;;;12.50;85.60;;;;;;5054626;28;20040;-72
2023/06/14 09:17:51;;;;;;;1999.90;999.90;;;12.40;86.10;;;;;;5058264;28;20458;-71
2023/06/14 09:20:18;;;;;;;1999.90;999.90;;;12.30;86.20;;;;;;5051514;28;20068;-72
2023/06/14 09:22:46;;;;;;;1999.90;999.90;;;12.20;86.60;;;;;;5060770;28;20424;-71
2023/06/14 09:25:15;;;;;;;1999.90;999.90;;;12.10;86.90;;;;;;5056838;28;20111;-71
2023/06/14 09:27:43;;;;;;;1999.90;999.90;;;12.00;87.00;;;;;;5049737;28;20123;-72
2023/06/14 09:30:11;;;;;;;1999.90;999.90;;;12.00;87.50;;;;;;5058082;28;20132;-72
2023/06/14 09:32:39;;;;;;;1999.90;999.90;;;12.00;87.70;;;;;;5058712;28;20025;-72
2023/06/14 09:35:10;;;;;;;1999.90;999.90;;;12.00;87.60;;;;;;5054893;28;20039;-72
2023/06/14 09:37:38;;;;;;;1999.90;999.90;;;12.00;87.80;;;;;;5060631;28;20037;-72
2023/06/14 09:40:07;;;;;;;1999.90;999.90;;;12.00;88.10;;;;;;5063032;28;20040;-73
2023/06/14 09:42:35;;;;;;;1999.90;999.90;;;12.00;88.20;;;;;;5059683;28;20091;-72
2023/06/14 09:45:04;;;;;;;1999.90;999.90;;;11.90;88.60;;;;;;5057858;28;20033;-72
2023/06/14 09:47:32;;;;;;;1999.90;999.90;;;11.80;88.90;;;;;;5053702;28;20036;-72
2023/06/14 09:50:00;;;;;;;1999.90;999.90;;;11.80;89.20;;;;;;5050642;28;20040;-72
2023/06/14 09:52:29;;;;;;;1999.90;999.90;;;11.80;89.40;;;;;;5053699;28;20086;-72
2023/06/14 09:54:58;;;;;;;1999.90;999.90;;;11.80;89.80;;;;;;5054791;28;20033;-71
2023/06/14 09:57:29;;;;;;;1999.90;999.90;;;11.70;90.10;;;;;;5055788;28;20029;-71
2023/06/14 10:00:00;;;;;;;1999.90;999.90;;;11.60;90.00;;;;;;5057487;28;20045;-72
2023/06/14 10:02:37;;;;;;;1999.90;999.90;;;11.50;90.10;;;;;;5055394;28;20052;-72
2023/06/14 10:05:06;;;;;;;1999.90;999.90;;;11.40;90.20;;;;;;5061695;28;20040;-72
2023/06/14 10:07:41;;;;;;;1999.90;999.90;;;11.30;90.80;;;;;;5059279;28;20025;-71
2023/06/14 10:10:08;;;;;;;1999.90;999.90;;;11.20;91.30;;;;;;5053118;28;20024;-72
2023/06/14 10:12:36;;;;;;;1999.90;999.90;;;11.00;91.10;;;;;;5054695;28;20483;-72
2023/06/14 10:15:05;;;;;;;1999.90;999.90;;;10.90;91.40;;;;;;5055889;28;20106;-72
2023/06/14 10:18:07;;;;;;;1999.90;999.90;;;10.80;91.50;;;;;;5058978;28;20033;-72
2023/06/14 10:20:49;;;;;;;1999.90;999.90;;;10.70;91.70;;;;;;5052271;28;20048;-72
2023/06/14 10:23:28;;;;;;;1999.90;999.90;;;10.50;91.90;;;;;;5042372;28;20077;-72
2023/06/14 10:25:59;;;;;;;1999.90;999.90;;;10.40;92.30;;;;;;5056930;28;20062;-72
2023/06/14 10:28:27;;;;;;;1999.90;999.90;;;10.30;92.80;;;;;;5050709;28;20033;-72
2023/06/14 10:31:07;;;;;;;1999.90;999.90;;;10.20;92.90;;;;;;5050489;28;20396;-72
2023/06/14 10:33:36;;;;;;;1999.90;999.90;;;10.20;93.00;;;;;;5057952;28;20483;-72
2023/06/14 10:36:36;;;;;;;1999.90;999.90;;;10.10;93.20;;;;;;5047616;28;20033;-71
2023/06/14 10:39:08;;;;;;;1999.90;999.90;;;10.00;93.50;;;;;;5044910;28;20092;-69
2023/06/14 10:41:42;;;;;;;1999.90;999.90;;;10.00;93.70;;;;;;5047710;28;20029;-72
2023/06/14 10:44:15;;;;;;;1999.90;999.90;;;10.10;93.60;;;;;;5052364;28;20036;-71
2023/06/14 10:47:06;;;;;;;1999.90;999.90;;;10.10;93.40;;;;;;5046177;28;20496;-72
2023/06/14 10:49:45;;;;;;;1999.90;999.90;;;10.10;93.40;;;;;;5066311;28;20068;-72
2023/06/14 10:52:21;;;;;;;1999.90;999.90;;;10.10;93.40;;;;;;5054011;28;20033;-72
2023/06/14 10:55:10;;;;;;;1999.90;999.90;;;10.10;93.50;;;;;;5049292;28;20049;-73
2023/06/14 10:57:40;;;;;;;1999.90;999.90;;;10.10;93.40;;;;;;5059859;28;20474;-72
2023/06/14 11:00:12;;;;;;;1999.90;999.90;;;10.10;93.80;;;;;;5048363;28;20032;-70
2023/06/14 11:03:07;;;;;;;1999.90;999.90;;;10.20;93.50;;;;;;5051342;28;20042;-71
2023/06/14 11:05:50;;;;;;;1999.90;999.90;;;10.20;93.20;;;;;;5055847;28;20098;-70
2023/06/14 11:08:32;;;;;;;1999.90;999.90;;;10.30;93.20;;;;;;5061097;28;20142;-72
2023/06/14 11:11:07;;;;;;;1999.90;999.90;;;10.30;93.30;;;;;;5050456;28;20106;-72
2023/06/14 11:13:38;;;;;;;1999.90;999.90;;;10.30;93.40;;;;;;5054418;28;20034;-72
2023/06/14 11:16:15;;;;;;;1999.90;999.90;;;10.20;93.80;;;;;;5053722;28;20023;-71
2023/06/14 11:18:44;;;;;;;1999.90;999.90;;;10.00;93.90;;;;;;5058970;28;20024;-72
2023/06/14 11:21:15;;;;;;;1999.90;999.90;;;10.00;94.20;;;;;;5057435;28;20112;-71
2023/06/14 11:23:42;;;;;;;1999.90;999.90;;;9.90;94.20;;;;;;5054082;28;20112;-71
2023/06/14 11:26:10;;;;;;;1999.90;999.90;;;9.80;94.20;;;;;;5058892;28;20369;-72
2023/06/14 11:28:47;;;;;;;1999.90;999.90;;;9.70;94.40;;;;;;5059186;28;20047;-71
2023/06/14 11:31:15;;;;;;;1999.90;999.90;;;9.70;94.40;;;;;;5060656;28;20063;-71
2023/06/14 11:33:42;;;;;;;1999.90;999.90;;;9.60;94.50;;;;;;5046895;28;21168;-71
2023/06/14 11:36:10;;;;;;;1999.90;999.90;;;9.60;94.50;;;;;;5059611;28;20037;-71
2023/06/14 11:38:38;;;;;;;1999.90;999.90;;;9.60;94.70;;;;;;5051795;28;20037;-71
2023/06/14 11:41:05;;;;;;;1999.90;999.90;;;9.60;94.70;;;;;;5055353;28;20035;-72
2023/06/14 11:43:33;;;;;;;1999.90;999.90;;;9.60;94.70;;;;;;5062406;28;20127;-71
2023/06/14 11:46:01;;;;;;;1999.90;999.90;;;9.60;94.60;;;;;;5050870;28;20060;-73
2023/06/14 11:48:42;;;;;;;1999.90;999.90;;;9.70;94.50;;;;;;5061255;28;20045;-72
2023/06/14 11:51:11;;;;;;;1999.90;999.90;;;9.70;94.30;;;;;;5062289;28;20201;-71
2023/06/14 11:53:44;;;;;;;1999.90;999.90;;;9.80;94.30;;;;;;5060452;28;20101;-71
2023/06/14 11:56:11;;;;;;;1999.90;999.90;;;9.90;94.10;;;;;;5060261;28;20021;-70
2023/06/14 11:58:39;;;;;;;1999.90;999.90;;;9.90;94.20;;;;;;5058413;28;20029;-70
2023/06/14 12:01:07;;;;;;;1999.90;999.90;;;9.80;94.30;;;;;;5059450;28;20033;-71
2023/06/14 12:03:35;;;;;;;1999.90;999.90;;;9.80;94.20;;;;;;5063446;28;20113;-71
2023/06/14 12:06:09;;;;;;;1999.90;999.90;;;9.70;94.20;;;;;;5060609;28;20763;-71
2023/06/14 12:08:41;;;;;;;1999.90;999.90;;;9.60;94.50;;;;;;5065439;28;20036;-71